TimeEDT,TemperatureF,Dew PointF,Humidity,Sea Level PressureIn,VisibilityMPH,Wind Direction,Wind SpeedMPH,Gust SpeedMPH,PrecipitationIn,Events,Conditions,WindDirDegrees,DateUTC
12:15 AM,55.4,53.6,94,30.10,1.0,Calm,Calm,-,N/A,,Overcast,0,2013-10-11 04:15:00
12:35 AM,53.6,51.8,94,30.09,0.2,Calm,Calm,-,N/A,,Overcast,0,2013-10-11 04:35:00
12:55 AM,51.8,50.0,94,30.08,0.2,Calm,Calm,-,N/A,,Mostly Cloudy,0,2013-10-11 04:55:00
1:15 AM,51.8,48.2,88,30.08,0.2,Calm,Calm,-,N/A,,Mostly Cloudy,0,2013-10-11 05:15:00
1:35 AM,51.8,50.0,94,30.08,0.5,Calm,Calm,-,N/A,,Unknown,0,2013-10-11 05:35:00
1:55 AM,48.2,46.4,93,30.09,0.2,Calm,Calm,-,N/A,,Mostly Cloudy,0,2013-10-11 05:55:00
2:15 AM,46.4,42.8,87,30.09,0.5,Calm,Calm,-,N/A,,Mostly Cloudy,0,2013-10-11 06:15:00
2:35 AM,46.4,44.6,93,30.09,0.5,Calm,Calm,-,N/A,,Mostly Cloudy,0,2013-10-11 06:35:00
2:55 AM,44.6,42.8,93,30.09,0.8,Calm,Calm,-,N/A,,Overcast,0,2013-10-11 06:55:00
3:15 AM,44.6,42.8,93,30.08,0.5,Calm,Calm,-,N/A,,Overcast,0,2013-10-11 07:15:00
3:35 AM,44.6,42.8,93,30.09,0.8,Calm,Calm,-,N/A,,Mostly Cloudy,0,2013-10-11 07:35:00
3:55 AM,44.6,42.8,93,30.08,0.2,Calm,Calm,-,N/A,,Overcast,0,2013-10-11 07:55:00
4:15 AM,42.8,39.2,87,30.08,0.2,Calm,Calm,-,N/A,,Overcast,0,2013-10-11 08:15:00
4:35 AM,44.6,41.0,87,30.09,0.2,Calm,Calm,-,N/A,,Overcast,0,2013-10-11 08:35:00
4:55 AM,44.6,42.8,93,30.09,0.2,Calm,Calm,-,N/A,,Overcast,0,2013-10-11 08:55:00
5:15 AM,42.8,41.0,93,30.09,0.5,Calm,Calm,-,N/A,,Overcast,0,2013-10-11 09:15:00
5:35 AM,42.8,39.2,87,30.10,0.5,Calm,Calm,-,N/A,,Overcast,0,2013-10-11 09:35:00
5:55 AM,42.8,39.2,87,30.10,0.5,Calm,Calm,-,N/A,,Overcast,0,2013-10-11 09:55:00
6:15 AM,42.8,41.0,93,30.10,0.5,Calm,Calm,-,N/A,,Overcast,0,2013-10-11 10:15:00
6:35 AM,42.8,41.0,93,30.10,0.8,Calm,Calm,-,N/A,,Overcast,0,2013-10-11 10:35:00
6:55 AM,42.8,41.0,93,30.10,0.5,Calm,Calm,-,N/A,,Overcast,0,2013-10-11 10:55:00
7:15 AM,42.8,41.0,93,30.10,0.2,Calm,Calm,-,N/A,,Overcast,0,2013-10-11 11:15:00
7:35 AM,42.8,41.0,93,30.10,0.2,Calm,Calm,-,N/A,,Overcast,0,2013-10-11 11:35:00
7:55 AM,44.6,42.8,93,30.10,0.2,Calm,Calm,-,N/A,,Overcast,0,2013-10-11 11:55:00
8:15 AM,44.6,42.8,93,30.10,0.2,Calm,Calm,-,N/A,,Overcast,0,2013-10-11 12:15:00
8:35 AM,44.6,44.6,100,30.11,0.2,Calm,Calm,-,N/A,,Overcast,0,2013-10-11 12:35:00
8:55 AM,46.4,44.6,93,30.11,0.2,Calm,Calm,-,N/A,,Overcast,0,2013-10-11 12:55:00
9:15 AM,48.2,46.4,93,30.11,0.2,Calm,Calm,-,N/A,,Overcast,0,2013-10-11 13:15:00
9:35 AM,48.2,48.2,100,30.11,0.2,Calm,Calm,-,N/A,,Overcast,0,2013-10-11 13:35:00
9:55 AM,51.8,48.2,88,30.11,0.2,Calm,Calm,-,N/A,,Overcast,0,2013-10-11 13:55:00
10:15 AM,53.6,51.8,94,30.10,0.2,NE,4.6,-,N/A,,Overcast,40,2013-10-11 14:15:00
10:35 AM,55.4,53.6,94,30.10,0.2,NE,3.5,-,N/A,,Overcast,50,2013-10-11 14:35:00
10:55 AM,57.2,55.4,94,30.10,10.0,East,3.5,-,N/A,,Scattered Clouds,90,2013-10-11 14:55:00
11:15 AM,57.2,55.4,94,30.09,10.0,ESE,6.9,-,N/A,,Clear,120,2013-10-11 15:15:00
11:35 AM,60.8,55.4,82,30.09,10.0,ESE,8.1,-,N/A,,Clear,120,2013-10-11 15:35:00
11:55 AM,60.8,55.4,82,30.09,10.0,SE,9.2,-,N/A,,Clear,140,2013-10-11 15:55:00
12:15 PM,60.8,55.4,82,30.09,10.0,SE,9.2,-,N/A,,Clear,130,2013-10-11 16:15:00
12:35 PM,62.6,53.6,72,30.09,10.0,SE,8.1,-,N/A,,Clear,140,2013-10-11 16:35:00
12:55 PM,62.6,55.4,77,30.10,10.0,SSE,8.1,-,N/A,,Clear,150,2013-10-11 16:55:00
1:15 PM,62.6,55.4,77,30.10,10.0,SE,10.4,-,N/A,,Clear,130,2013-10-11 17:15:00
1:35 PM,62.6,55.4,77,30.09,10.0,SE,9.2,-,N/A,,Clear,140,2013-10-11 17:35:00
1:55 PM,62.6,55.4,77,30.08,10.0,SE,9.2,-,N/A,,Clear,140,2013-10-11 17:55:00
2:15 PM,62.6,55.4,77,30.08,10.0,South,6.9,-,N/A,,Clear,170,2013-10-11 18:15:00
2:35 PM,62.6,53.6,72,30.07,10.0,SSE,8.1,-,N/A,,Clear,160,2013-10-11 18:35:00
2:55 PM,62.6,55.4,77,30.06,10.0,SE,8.1,-,N/A,,Clear,140,2013-10-11 18:55:00
3:15 PM,62.6,53.6,72,30.05,10.0,SE,9.2,-,N/A,,Clear,130,2013-10-11 19:15:00
3:35 PM,62.6,53.6,72,30.04,10.0,SE,10.4,-,N/A,,Clear,130,2013-10-11 19:35:00
3:55 PM,62.6,55.4,77,30.04,10.0,SE,8.1,-,N/A,,Clear,140,2013-10-11 19:55:00
4:15 PM,62.6,53.6,72,30.04,10.0,SE,10.4,16.1,N/A,,Clear,130,2013-10-11 20:15:00
4:35 PM,62.6,53.6,72,30.03,10.0,SSE,9.2,-,N/A,,Clear,150,2013-10-11 20:35:00
4:55 PM,62.6,53.6,72,30.03,10.0,SE,6.9,-,N/A,,Clear,130,2013-10-11 20:55:00
5:15 PM,62.6,53.6,72,30.03,10.0,SE,4.6,-,N/A,,Clear,140,2013-10-11 21:15:00
5:35 PM,62.6,51.8,68,30.02,10.0,SE,6.9,-,N/A,,Clear,140,2013-10-11 21:35:00
5:55 PM,62.6,50.0,63,30.01,10.0,SE,13.8,-,N/A,,Clear,140,2013-10-11 21:55:00
6:15 PM,62.6,51.8,68,30.01,10.0,SE,13.8,-,N/A,,Clear,140,2013-10-11 22:15:00
6:35 PM,60.8,53.6,77,30.01,10.0,SE,11.5,-,N/A,,Clear,130,2013-10-11 22:35:00
6:55 PM,60.8,53.6,77,30.01,10.0,ESE,10.4,-,N/A,,Clear,120,2013-10-11 22:55:00
7:15 PM,59.0,53.6,82,30.01,10.0,ESE,11.5,-,N/A,,Clear,120,2013-10-11 23:15:00
7:35 PM,59.0,53.6,82,30.00,10.0,ESE,10.4,-,N/A,,Clear,120,2013-10-11 23:35:00
7:55 PM,59.0,53.6,82,30.00,10.0,SE,9.2,-,N/A,,Clear,130,2013-10-11 23:55:00
8:15 PM,59.0,53.6,82,30.00,10.0,ESE,8.1,-,N/A,,Clear,120,2013-10-12 00:15:00
8:35 PM,59.0,53.6,82,30.00,10.0,SE,6.9,-,N/A,,Clear,130,2013-10-12 00:35:00
8:55 PM,57.2,53.6,88,30.00,10.0,SE,4.6,-,N/A,,Clear,140,2013-10-12 00:55:00
9:15 PM,57.2,53.6,88,30.00,10.0,ESE,5.8,-,N/A,,Clear,120,2013-10-12 01:15:00
9:35 PM,57.2,53.6,88,30.00,10.0,SE,6.9,-,N/A,,Clear,130,2013-10-12 01:35:00
9:55 PM,59.0,53.6,82,29.99,10.0,SE,10.4,-,N/A,,Clear,130,2013-10-12 01:55:00
10:15 PM,59.0,53.6,82,29.99,10.0,SE,6.9,-,N/A,,Clear,140,2013-10-12 02:15:00
10:35 PM,59.0,53.6,82,29.99,10.0,SE,9.2,-,N/A,,Clear,140,2013-10-12 02:35:00
10:55 PM,59.0,53.6,82,29.99,10.0,South,5.8,-,N/A,,Clear,170,2013-10-12 02:55:00
11:15 PM,57.2,53.6,88,29.99,10.0,SSE,4.6,-,N/A,,Clear,150,2013-10-12 03:15:00
11:35 PM,57.2,53.6,88,29.99,10.0,SSE,4.6,-,N/A,,Clear,150,2013-10-12 03:35:00
11:55 PM,57.2,53.6,88,29.98,10.0,SSE,5.8,-,N/A,,Clear,150,2013-10-12 03:55:00